Terminal Aerodrome Forecast
Issued by NWS

Home | Current Version | Previous Version | Text Only | Print | Product List | Glossary On
Versions: 1 2 3 4 5 6 7 8 9 10 11 12 13 14 15 16 17 18 19 20 21 22 23 24 25 26
000
FTPA31 PHFO 300500
TAFLNY
TAF
PHNY 300532Z 3006/3106 04010KT P6SM FEW025
     FM300900 04005KT P6SM FEW025
     FM302000 04012KT P6SM SCT025 SCT050
      AMD NOT SKED=

USA.gov is the U.S. government's official web portal to all federal, state and local government web resources and services.